Time;durP1;ratioP1;P1;durP2;ratioP2;P2;SDS_P1;SDS_P2;PMS_P1;PMS_P2;Temp;Humidity;BMP_temperature;BMP_pressure;BME280_temperature;BME280_humidity;BME280_pressure;Samples;Min_cycle;Max_cycle;Signal;HPM_P1;HPM_P2
2021/08/26 00:06:19;;;;;;;64.85;27.58;;;;;;;18.20;73.13;99714.00;1811130;79;22514;-77
2021/08/26 00:09:24;;;;;;;55.92;27.27;;;;;;;18.23;73.01;99708.84;1800265;79;21847;-77
2021/08/26 00:12:30;;;;;;;58.20;25.30;;;;;;;18.27;72.92;99710.59;1801196;79;21902;-77
2021/08/26 00:15:36;;;;;;;51.83;25.72;;;;;;;18.30;72.81;99714.23;1801550;79;21339;-77
2021/08/26 00:18:41;;;;;;;47.30;22.50;;;;;;;18.33;72.49;99713.22;1801300;79;21176;-77
2021/08/26 00:21:50;;;;;;;42.03;20.88;;;;;;;18.39;71.91;99709.48;1801394;79;21276;-77
2021/08/26 00:24:54;;;;;;;53.35;23.10;;;;;;;18.49;71.22;99710.28;1771170;81;21165;-77
2021/08/26 00:28:00;;;;;;;49.05;22.77;;;;;;;18.59;70.56;99713.82;1770837;81;21217;-77
2021/08/26 00:31:06;;;;;;;49.00;23.07;;;;;;;18.67;70.27;99713.42;1771172;81;21747;-77
2021/08/26 00:34:11;;;;;;;51.13;21.10;;;;;;;18.69;70.01;99715.45;1769990;81;21181;-77
2021/08/26 00:37:17;;;;;;;41.15;18.92;;;;;;;18.70;69.50;99714.91;1779598;79;21331;-77
2021/08/26 00:40:24;;;;;;;48.38;22.35;;;;;;;18.72;69.27;99719.64;1802773;79;21306;-77
2021/08/26 00:43:30;;;;;;;49.75;23.40;;;;;;;18.68;69.31;99717.90;1803230;79;21177;-77
2021/08/26 00:46:36;;;;;;;41.33;20.62;;;;;;;18.63;69.45;99722.78;1802853;79;21303;-77
2021/08/26 00:49:41;;;;;;;44.15;21.12;;;;;;;18.58;69.46;99716.27;1801534;79;21744;-77
2021/08/26 00:52:47;;;;;;;34.27;19.42;;;;;;;18.51;69.60;99719.72;1782398;79;21639;-77
2021/08/26 00:55:54;;;;;;;38.85;19.77;;;;;;;18.46;69.88;99719.06;1760092;81;21166;-77
2021/08/26 00:58:59;;;;;;;39.35;20.75;;;;;;;18.43;70.13;99727.84;1759266;81;21344;-77
2021/08/26 01:02:20;;;;;;;38.17;20.92;;;;;;;18.41;70.46;99717.56;1758914;81;21705;-77
2021/08/26 01:05:40;;;;;;;41.40;20.08;;;;;;;18.38;70.67;99714.72;1760126;81;21721;-77
2021/08/26 01:09:02;;;;;;;35.85;19.77;;;;;;;18.35;70.84;99711.62;1800406;79;21299;-77
2021/08/26 01:12:09;;;;;;;43.87;20.92;;;;;;;18.31;70.97;99717.34;1811514;79;21334;-77
2021/08/26 01:15:16;;;;;;;38.48;19.52;;;;;;;18.24;71.49;99715.22;1811967;79;21303;-77
2021/08/26 01:18:21;;;;;;;38.85;18.27;;;;;;;18.18;72.49;99712.03;1810801;79;21358;-77
2021/08/26 01:21:31;;;;;;;40.30;18.55;;;;;;;18.13;73.32;99708.06;1789003;79;21296;-77
2021/08/26 01:24:36;;;;;;;32.55;19.60;;;;;;;18.12;73.83;99709.69;1811557;79;21153;-77
2021/08/26 01:27:47;;;;;;;38.08;18.92;;;;;;;18.09;74.21;99704.08;1811540;79;21276;-77
2021/08/26 01:30:52;;;;;;;38.92;19.15;;;;;;;18.03;74.51;99706.44;1811528;79;21349;-77
2021/08/26 01:33:59;;;;;;;36.10;19.10;;;;;;;18.02;74.97;99707.52;1810342;79;21196;-77
2021/08/26 01:37:05;;;;;;;40.65;18.65;;;;;;;18.01;75.55;99704.43;1811749;79;21181;-77
2021/08/26 01:40:10;;;;;;;36.93;17.12;;;;;;;17.99;76.09;99707.98;1811326;79;21271;-77
2021/08/26 01:43:23;;;;;;;32.83;17.42;;;;;;;17.98;76.23;99707.70;1811884;79;21294;-77
2021/08/26 01:46:29;;;;;;;30.82;16.87;;;;;;;17.96;75.93;99709.84;1809950;79;21303;-77
2021/08/26 01:49:34;;;;;;;31.52;17.05;;;;;;;17.96;76.33;99706.23;1810171;79;21307;-77
2021/08/26 01:52:40;;;;;;;28.75;15.80;;;;;;;17.93;76.47;99707.58;1811500;79;21173;-77
2021/08/26 01:55:49;;;;;;;31.80;15.63;;;;;;;17.92;76.45;99709.17;1811497;79;21169;-78
2021/08/26 01:58:55;;;;;;;27.17;16.07;;;;;;;17.90;76.33;99709.97;1810021;79;21283;-77
2021/08/26 02:02:01;;;;;;;29.15;15.80;;;;;;;17.88;76.14;99710.22;1810188;79;21228;-77
2021/08/26 02:05:07;;;;;;;22.58;13.78;;;;;;;17.88;75.70;99710.22;1811568;79;21290;-77
2021/08/26 02:08:13;;;;;;;27.93;14.80;;;;;;;17.86;75.28;99710.44;1769905;79;21223;-77
2021/08/26 02:11:19;;;;;;;21.87;13.00;;;;;;;17.82;74.86;99707.00;1760571;80;21268;-77
2021/08/26 02:14:26;;;;;;;22.73;12.50;;;;;;;17.78;74.50;99708.00;1760972;81;21879;-77
2021/08/26 02:17:32;;;;;;;20.82;12.70;;;;;;;17.77;74.06;99707.71;1762583;81;21895;-77
2021/08/26 02:20:38;;;;;;;24.57;13.98;;;;;;;17.73;73.83;99698.20;1761514;81;21336;-77
2021/08/26 02:23:42;;;;;;;43.38;14.15;;;;;;;17.72;73.78;99708.94;1760264;80;21204;-77
2021/08/26 02:26:47;;;;;;;25.30;13.78;;;;;;;17.74;73.71;99700.45;1758579;81;21249;-77
2021/08/26 02:29:52;;;;;;;25.40;12.13;;;;;;;17.73;73.50;99702.34;1759699;81;21383;-77
2021/08/26 02:32:58;;;;;;;24.07;13.32;;;;;;;17.72;73.24;99700.64;1759933;81;21292;-77
2021/08/26 02:36:03;;;;;;;25.30;13.00;;;;;;;17.70;72.94;99696.44;1760271;81;21292;-77
2021/08/26 02:39:09;;;;;;;16.37;11.60;;;;;;;17.68;72.82;99695.27;1771311;81;21760;-77
2021/08/26 02:42:15;;;;;;;19.80;12.33;;;;;;;17.66;72.74;99699.38;1769867;81;21188;-77
2021/08/26 02:45:21;;;;;;;23.80;12.25;;;;;;;17.63;72.55;99705.67;1771743;81;21161;-77
2021/08/26 02:48:26;;;;;;;25.20;12.00;;;;;;;17.61;72.48;99707.84;1771048;81;21189;-77
2021/08/26 02:51:33;;;;;;;18.32;11.08;;;;;;;17.60;72.40;99696.48;1769872;81;21335;-77
2021/08/26 02:54:38;;;;;;;26.48;11.33;;;;;;;17.59;72.42;99704.99;1771243;81;21351;-77
2021/08/26 02:57:44;;;;;;;21.12;11.08;;;;;;;17.59;72.44;99700.30;1771303;81;21185;-77
2021/08/26 03:00:50;;;;;;;22.00;11.00;;;;;;;17.60;72.45;99702.02;1770458;81;21264;-77
2021/08/26 03:03:56;;;;;;;25.23;12.25;;;;;;;17.60;72.48;99699.25;1771235;80;21374;-77
2021/08/26 03:07:02;;;;;;;24.77;11.40;;;;;;;17.59;72.51;99700.30;1774898;79;21348;-77
2021/08/26 03:10:09;;;;;;;21.75;11.55;;;;;;;17.61;72.54;99693.17;1801197;79;21239;-77
2021/08/26 03:13:15;;;;;;;19.23;11.57;;;;;;;17.63;72.51;99690.45;1802812;79;21311;-77
2021/08/26 03:16:21;;;;;;;24.05;11.55;;;;;;;17.67;72.45;99688.06;1802939;79;21827;-77
2021/08/26 03:19:27;;;;;;;24.15;11.00;;;;;;;17.72;72.27;99687.35;1802593;79;21330;-77
2021/08/26 03:22:33;;;;;;;24.65;11.80;;;;;;;17.76;71.89;99698.28;1802775;79;21358;-77
2021/08/26 03:25:39;;;;;;;19.82;11.95;;;;;;;17.81;71.46;99698.41;1802661;79;21307;-77
2021/08/26 03:28:45;;;;;;;19.57;11.03;;;;;;;17.88;71.11;99699.16;1802639;79;21177;-77
2021/08/26 03:31:50;;;;;;;21.93;10.88;;;;;;;17.94;70.65;99695.42;1801624;79;21827;-77
2021/08/26 03:34:56;;;;;;;18.20;11.38;;;;;;;18.03;70.24;99698.67;1802165;79;21846;-77
2021/08/26 03:38:02;;;;;;;15.85;10.23;;;;;;;18.12;70.00;99702.77;1784491;79;21355;-77
2021/08/26 03:41:06;;;;;;;23.00;11.22;;;;;;;18.22;69.70;99696.63;1769884;81;21295;-77
2021/08/26 03:44:12;;;;;;;13.85;10.32;;;;;;;18.33;69.49;99697.16;1769697;81;21299;-77
2021/08/26 03:47:18;;;;;;;19.48;9.50;;;;;;;18.45;69.28;99702.16;1769553;81;21296;-77
2021/08/26 03:50:25;;;;;;;22.55;10.18;;;;;;;18.57;69.15;99699.36;1770112;79;21232;-77
2021/08/26 03:53:30;;;;;;;22.50;9.75;;;;;;;18.74;68.91;99696.72;1771114;79;21300;-77
2021/08/26 03:56:35;;;;;;;24.05;9.08;;;;;;;18.87;68.68;99703.37;1771084;81;21787;-77
2021/08/26 03:59:40;;;;;;;18.62;9.03;;;;;;;19.01;68.56;99696.46;1771064;81;21307;-77
2021/08/26 04:02:45;;;;;;;14.30;7.75;;;;;;;19.18;68.27;99698.43;1769506;81;21796;-77
2021/08/26 04:05:51;;;;;;;20.60;8.63;;;;;;;19.33;67.68;99690.39;1770387;81;21323;-77
2021/08/26 04:08:58;;;;;;;19.48;8.90;;;;;;;19.43;67.50;99686.42;1770928;80;21846;-77
2021/08/26 04:12:05;;;;;;;18.37;8.78;;;;;;;19.49;67.42;99682.67;1764206;81;21395;-77
2021/08/26 04:15:13;;;;;;;24.40;8.70;;;;;;;19.53;67.50;99681.63;1744920;82;21299;-77
2021/08/26 04:18:18;;;;;;;16.97;8.40;;;;;;;19.63;67.44;99680.45;1744784;82;22561;-77
2021/08/26 04:21:25;;;;;;;19.35;8.75;;;;;;;19.77;67.40;99679.03;1743852;82;21368;-77
2021/08/26 04:24:30;;;;;;;19.57;9.43;;;;;;;19.88;67.26;99685.03;1739797;82;21304;-77
2021/08/26 04:27:36;;;;;;;17.70;9.38;;;;;;;20.02;66.96;99679.98;1689847;85;21213;-77
2021/08/26 04:30:41;;;;;;;18.17;9.00;;;;;;;20.16;66.64;99684.09;1676231;85;21315;-77
2021/08/26 04:33:47;;;;;;;15.65;7.85;;;;;;;20.28;66.13;99685.91;1704515;84;21331;-77
2021/08/26 04:36:52;;;;;;;15.78;8.15;;;;;;;20.36;66.08;99684.09;1689116;84;21899;-77
2021/08/26 04:39:57;;;;;;;16.62;8.18;;;;;;;20.44;65.39;99686.44;1723961;83;21181;-77
2021/08/26 04:43:03;;;;;;;15.15;8.15;;;;;;;20.47;65.41;99687.36;1703329;83;21823;-77
2021/08/26 04:46:09;;;;;;;17.42;7.62;;;;;;;20.57;65.71;99686.11;1690846;84;21170;-77
2021/08/26 04:49:15;;;;;;;15.23;8.48;;;;;;;20.66;65.37;99687.34;1686912;84;21367;-77
2021/08/26 04:52:21;;;;;;;17.55;8.05;;;;;;;20.80;65.12;99685.02;1715574;83;21298;-77
2021/08/26 04:55:27;;;;;;;11.38;6.72;;;;;;;20.93;64.61;99688.77;1704241;84;21842;-77
2021/08/26 04:58:32;;;;;;;20.32;7.80;;;;;;;21.06;64.26;99693.66;1733236;83;21234;-77
2021/08/26 05:01:39;;;;;;;28.62;8.30;;;;;;;21.17;64.06;99684.33;1732030;83;21352;-77
2021/08/26 05:04:46;;;;;;;13.38;7.35;;;;;;;21.30;63.59;99690.03;1719170;82;21209;-77
2021/08/26 05:07:52;;;;;;;16.75;8.40;;;;;;;21.42;62.93;99687.98;1715121;83;21169;-77
2021/08/26 05:10:58;;;;;;;11.83;7.55;;;;;;;21.54;62.85;99684.47;1713119;82;21288;-78
2021/08/26 05:14:03;;;;;;;14.25;8.78;;;;;;;21.69;62.60;99687.42;1722327;81;21315;-77
2021/08/26 05:17:09;;;;;;;20.10;8.23;;;;;;;21.79;62.17;99689.45;1738780;81;21296;-77
2021/08/26 05:20:16;;;;;;;16.07;8.28;;;;;;;21.88;62.29;99685.62;1752608;81;21192;-77
2021/08/26 05:23:21;;;;;;;25.30;10.08;;;;;;;21.93;62.17;99684.28;1748238;81;21287;-77
2021/08/26 05:26:27;;;;;;;22.45;11.97;;;;;;;22.04;61.91;99680.45;1720149;82;21232;-77
2021/08/26 05:29:33;;;;;;;29.90;14.95;;;;;;;22.14;60.82;99679.72;1710812;83;21462;-77
2021/08/26 05:32:37;;;;;;;31.15;13.93;;;;;;;22.20;60.76;99678.64;1732501;81;21315;-79
2021/08/26 05:35:43;;;;;;;36.60;16.75;;;;;;;22.30;61.36;99675.95;1757053;80;21296;-79
2021/08/26 05:38:52;;;;;;;27.95;13.83;;;;;;;22.46;61.06;99675.48;1741216;81;21204;-77
2021/08/26 05:42:01;;;;;;;30.20;14.70;;;;;;;22.61;60.73;99681.13;1740501;81;21181;-76
2021/08/26 05:45:07;;;;;;;32.40;13.98;;;;;;;22.76;60.64;99688.72;1738169;81;21537;-77
2021/08/26 05:48:13;;;;;;;35.13;15.68;;;;;;;22.93;60.39;99680.20;1738399;81;21363;-76
2021/08/26 05:51:21;;;;;;;27.00;13.75;;;;;;;23.09;59.54;99676.33;1711297;81;21203;-77
2021/08/26 05:54:27;;;;;;;40.38;17.12;;;;;;;23.25;59.31;99677.23;1737780;81;21275;-77
2021/08/26 05:57:34;;;;;;;36.75;17.77;;;;;;;23.38;57.13;99682.83;1735390;81;21283;-77
2021/08/26 06:00:40;;;;;;;46.10;17.98;;;;;;;23.41;56.72;99681.72;1737467;81;21319;-77
2021/08/26 06:03:46;;;;;;;37.85;18.35;;;;;;;23.48;56.73;99681.47;1730042;81;21322;-78
2021/08/26 06:06:54;;;;;;;43.13;16.02;;;;;;;23.58;56.15;99677.86;1735513;81;21240;-78
2021/08/26 06:09:59;;;;;;;33.23;15.43;;;;;;;23.68;56.20;99674.55;1741033;81;21334;-78
2021/08/26 06:13:06;;;;;;;35.00;14.25;;;;;;;23.76;55.18;99672.30;1734136;81;22650;-77
2021/08/26 06:16:13;;;;;;;36.48;14.80;;;;;;;23.86;55.43;99678.75;1728048;82;21525;-78
2021/08/26 06:19:18;;;;;;;33.48;16.05;;;;;;;23.98;54.83;99675.66;1731237;82;21970;-78
2021/08/26 06:22:24;;;;;;;38.10;15.15;;;;;;;24.10;53.76;99677.61;1704261;83;21428;-78
2021/08/26 06:25:32;;;;;;;35.78;15.30;;;;;;;24.22;54.62;99674.52;1687221;83;21196;-78
2021/08/26 06:28:58;;;;;;;30.40;14.35;;;;;;;24.42;53.56;99673.69;1703191;83;21630;-80
2021/08/26 06:32:04;;;;;;;35.98;15.50;;;;;;;24.62;52.14;99672.23;1705631;83;21289;-79
2021/08/26 06:35:09;;;;;;;34.08;15.80;;;;;;;24.71;51.59;99679.47;1721615;82;21720;-77
2021/08/26 06:38:16;;;;;;;32.48;14.90;;;;;;;24.75;51.00;99676.39;1726786;82;21415;-78
2021/08/26 06:41:21;;;;;;;35.73;15.35;;;;;;;24.75;51.06;99679.19;1725600;82;21371;-78
2021/08/26 06:44:27;;;;;;;32.98;15.58;;;;;;;24.80;51.21;99678.33;1721844;82;21833;-78
2021/08/26 06:47:34;;;;;;;31.70;15.35;;;;;;;24.87;50.96;99678.84;1723990;82;22207;-77
2021/08/26 06:50:40;;;;;;;25.02;13.80;;;;;;;24.97;50.24;99678.23;1727481;82;21715;-78
2021/08/26 06:53:45;;;;;;;45.52;17.17;;;;;;;25.11;50.52;99683.23;1721885;81;21362;-80
2021/08/26 06:56:51;;;;;;;41.45;15.85;;;;;;;25.19;49.61;99677.88;1720881;82;21746;-79
2021/08/26 06:59:57;;;;;;;33.33;15.63;;;;;;;25.30;49.07;99683.42;1723493;82;21205;-79
2021/08/26 07:03:03;;;;;;;42.88;17.37;;;;;;;25.38;48.64;99678.05;1724056;82;21323;-79
2021/08/26 07:06:09;;;;;;;34.33;16.55;;;;;;;25.50;48.00;99673.48;1725327;82;21674;-77
2021/08/26 07:09:14;;;;;;;38.38;14.03;;;;;;;25.56;47.62;99678.51;1730558;82;21633;-77
2021/08/26 07:12:20;;;;;;;33.45;14.35;;;;;;;25.66;47.42;99679.27;1723887;82;21189;-78
2021/08/26 07:15:26;;;;;;;40.67;16.87;;;;;;;25.81;47.57;99667.70;1721834;82;21217;-78
2021/08/26 07:18:32;;;;;;;35.63;17.17;;;;;;;25.90;47.08;99666.78;1705902;82;21316;-78
2021/08/26 07:21:38;;;;;;;48.85;18.75;;;;;;;25.89;46.57;99658.11;1710640;82;21790;-78
2021/08/26 07:24:44;;;;;;;44.95;20.75;;;;;;;25.89;46.69;99663.71;1703263;82;22259;-78
2021/08/26 07:27:49;;;;;;;53.23;20.05;;;;;;;25.96;46.91;99668.97;1710597;81;21204;-78
2021/08/26 07:30:54;;;;;;;47.45;22.40;;;;;;;26.04;46.63;99659.94;1716805;81;22421;-79
2021/08/26 07:34:00;;;;;;;51.95;22.22;;;;;;;26.03;46.16;99659.67;1713511;81;21263;-79
2021/08/26 07:37:07;;;;;;;52.08;22.87;;;;;;;26.04;46.48;99658.53;1709713;81;21270;-78
2021/08/26 07:40:13;;;;;;;47.73;21.95;;;;;;;26.11;46.25;99659.05;1718779;81;21620;-79
2021/08/26 07:43:19;;;;;;;49.05;21.65;;;;;;;26.20;46.94;99654.44;1714750;81;21296;-78
2021/08/26 07:46:24;;;;;;;52.95;20.08;;;;;;;26.32;46.11;99654.62;1720979;81;21584;-78
2021/08/26 07:49:30;;;;;;;41.35;19.62;;;;;;;26.48;46.86;99646.33;1715752;81;21216;-79
2021/08/26 07:52:36;;;;;;;49.35;20.85;;;;;;;26.68;46.84;99652.30;1731743;81;21175;-78
2021/08/26 07:55:42;;;;;;;34.58;18.07;;;;;;;26.86;46.08;99654.86;1698237;82;21269;-79
2021/08/26 07:58:47;;;;;;;33.00;15.78;;;;;;;27.00;45.15;99648.78;1712089;82;21755;-78
2021/08/26 08:01:56;;;;;;;40.75;17.92;;;;;;;27.03;43.96;99647.36;1709411;82;21790;-78
2021/08/26 08:05:01;;;;;;;41.73;16.45;;;;;;;27.01;44.88;99647.66;1717166;82;21365;-80
2021/08/26 08:08:09;;;;;;;46.13;17.40;;;;;;;27.06;44.50;99643.95;1714924;82;21478;-79
2021/08/26 08:11:26;;;;;;;26.75;11.97;;;;;;;27.11;44.89;99645.32;1716983;82;21433;-81
2021/08/26 08:14:38;;;;;;;32.67;12.37;;;;;;;27.16;43.93;99635.42;1713982;82;21235;-80
2021/08/26 08:17:45;;;;;;;25.82;10.82;;;;;;;27.15;43.79;99643.01;1719633;82;21403;-79
2021/08/26 08:20:52;;;;;;;31.12;11.53;;;;;;;27.10;43.61;99640.27;1722513;82;21209;-79
2021/08/26 08:23:57;;;;;;;15.10;8.18;;;;;;;27.10;44.02;99640.27;1723758;82;22428;-78
2021/08/26 08:27:03;;;;;;;16.82;8.73;;;;;;;27.15;43.77;99634.59;1785090;79;21287;-79
2021/08/26 08:30:08;;;;;;;16.00;8.00;;;;;;;27.24;43.60;99619.28;1763462;79;21282;-78
2021/08/26 08:33:13;;;;;;;26.12;8.93;;;;;;;27.41;43.60;99621.56;1784343;79;21291;-78
2021/08/26 08:36:21;;;;;;;16.77;8.50;;;;;;;27.48;43.54;99616.41;1781317;79;21339;-79
2021/08/26 08:39:26;;;;;;;23.18;8.30;;;;;;;27.58;42.91;99616.81;1758765;79;21803;-78
2021/08/26 08:42:33;;;;;;;21.82;8.43;;;;;;;27.58;43.07;99619.05;1780145;79;21622;-79
2021/08/26 08:45:39;;;;;;;17.98;8.85;;;;;;;27.56;42.79;99620.48;1777430;79;21272;-79
2021/08/26 08:48:48;;;;;;;20.92;8.15;;;;;;;27.57;42.82;99616.53;1783979;79;21692;-78
2021/08/26 08:51:59;;;;;;;17.80;7.50;;;;;;;27.59;43.13;99610.88;1780908;79;21340;-83
2021/08/26 08:55:04;;;;;;;13.13;6.92;;;;;;;27.69;42.61;99610.70;1783863;79;21357;-78
2021/08/26 08:58:13;;;;;;;15.35;7.50;;;;;;;27.78;42.60;99602.45;1771108;79;21196;-78
2021/08/26 09:01:22;;;;;;;15.90;7.28;;;;;;;27.91;41.40;99609.27;1773027;79;21204;-78
2021/08/26 09:04:28;;;;;;;22.95;7.87;;;;;;;27.91;41.20;99603.64;1780250;79;21307;-78
2021/08/26 09:07:37;;;;;;;18.42;7.75;;;;;;;27.93;41.97;99602.75;1786350;79;21287;-78
2021/08/26 09:10:43;;;;;;;15.95;7.75;;;;;;;27.97;42.31;99604.63;1783849;79;21374;-78
2021/08/26 09:13:51;;;;;;;18.92;6.95;;;;;;;28.02;41.75;99605.11;1792630;79;21247;-77
2021/08/26 09:16:58;;;;;;;21.90;8.23;;;;;;;28.10;42.26;99601.59;1786365;79;21763;-78
2021/08/26 09:20:14;;;;;;;11.43;7.42;;;;;;;28.14;41.90;99605.45;1771192;79;21865;-77
2021/08/26 09:23:18;;;;;;;11.73;6.60;;;;;;;28.16;41.56;99603.73;1768701;79;21259;-78
2021/08/26 09:26:27;;;;;;;12.50;6.85;;;;;;;28.12;41.56;99608.30;1769285;79;21157;-78
2021/08/26 09:29:34;;;;;;;11.30;6.50;;;;;;;28.13;40.77;99600.13;1726359;81;21323;-79
2021/08/26 09:32:45;;;;;;;9.63;6.30;;;;;;;27.91;41.50;99590.99;1699445;83;21698;-79
2021/08/26 09:35:50;;;;;;;11.20;6.55;;;;;;;27.91;41.50;99590.99;1728664;81;21346;-77
2021/08/26 09:39:10;;;;;;;14.63;7.37;;;;;;;27.97;41.40;99589.75;1665555;82;21170;-77
2021/08/26 09:42:15;;;;;;;19.25;7.87;;;;;;;28.00;41.08;99587.16;1734258;81;21309;-79
2021/08/26 09:45:28;;;;;;;14.07;6.47;;;;;;;27.99;41.54;99583.23;1733000;81;21360;-78
2021/08/26 09:48:34;;;;;;;13.18;7.70;;;;;;;27.99;41.98;99580.42;1735322;81;21166;-78
2021/08/26 09:51:39;;;;;;;18.30;6.72;;;;;;;27.98;41.82;99573.14;1729513;81;22300;-78
2021/08/26 09:54:50;;;;;;;19.23;7.05;;;;;;;27.92;41.63;99575.22;1701788;83;21332;-78
2021/08/26 09:57:55;;;;;;;9.33;5.83;;;;;;;27.88;42.37;99574.16;1715832;82;21382;-78
2021/08/26 10:01:17;;;;;;;14.68;7.08;;;;;;;27.88;42.37;99574.16;1704226;82;21323;-77
2021/08/26 10:04:34;;;;;;;9.48;6.45;;;;;;;28.18;42.05;99573.32;1713190;82;22555;-79
2021/08/26 10:07:39;;;;;;;13.88;6.45;;;;;;;28.18;42.05;99573.32;1710595;82;21276;-78
2021/08/26 10:10:49;;;;;;;10.82;6.70;;;;;;;28.40;41.40;99573.47;1727432;81;22423;-79
2021/08/26 10:13:56;;;;;;;10.63;6.05;;;;;;;28.45;40.65;99573.37;1727676;82;21319;-79
2021/08/26 10:17:01;;;;;;;10.72;6.30;;;;;;;28.46;40.90;99577.84;1731308;81;21311;-79
2021/08/26 10:20:07;;;;;;;24.50;14.50;;;;;;;28.50;40.24;99578.88;1741615;80;21645;-77
2021/08/26 10:23:12;;;;;;;94.15;46.28;;;;;;;28.56;39.91;99566.98;1754570;80;21200;-79
2021/08/26 10:26:25;;;;;;;17.40;8.05;;;;;;;28.79;39.65;99566.45;1728793;82;21279;-79
2021/08/26 10:29:30;;;;;;;27.82;14.38;;;;;;;28.79;39.65;99566.45;1718439;81;21851;-77
2021/08/26 10:32:35;;;;;;;15.13;7.28;;;;;;;28.90;39.44;99560.88;1749518;80;21283;-78
2021/08/26 10:45:26;;;;;;;16.17;7.95;;;;;;;28.81;39.78;99550.11;1741347;82;21252;-79
2021/08/26 10:49:17;;;;;;;9.85;7.83;;;;;;;29.12;39.38;99551.66;1841083;76;22199;-79
2021/08/26 10:52:24;;;;;;;9.28;7.33;;;;;;;29.21;38.48;99553.97;1817173;77;21955;-79
2021/08/26 12:04:26;;;;;;;14.78;9.45;;;;;;;29.31;38.83;99485.30;1798431;78;21169;-77
2021/08/26 12:07:36;;;;;;;19.20;10.75;;;;;;;29.31;38.92;99471.80;1796436;79;21333;-79
2021/08/26 12:10:53;;;;;;;15.60;10.32;;;;;;;29.31;39.34;99469.81;1767940;79;21333;-76
2021/08/26 12:13:58;;;;;;;19.25;8.83;;;;;;;29.25;39.20;99459.84;1763127;81;21364;-76
2021/08/26 12:17:03;;;;;;;23.52;9.93;;;;;;;29.18;39.23;99451.03;1726222;81;21922;-76
2021/08/26 12:20:08;;;;;;;18.20;9.68;;;;;;;29.14;40.08;99438.16;1769877;79;21287;-76
2021/08/26 12:23:14;;;;;;;15.08;8.48;;;;;;;29.11;39.87;99451.45;1773358;79;21251;-75
2021/08/26 12:26:28;;;;;;;18.45;9.65;;;;;;;29.05;40.00;99442.89;1797701;79;21348;-79
2021/08/26 12:29:33;;;;;;;17.37;10.63;;;;;;;28.96;40.50;99442.00;1781769;79;21286;-78
2021/08/26 12:32:44;;;;;;;17.00;9.45;;;;;;;28.90;40.71;99434.80;1771885;79;21541;-78
2021/08/26 12:36:03;;;;;;;22.37;10.55;;;;;;;28.87;41.19;99443.30;1799900;79;21291;-78
2021/08/26 12:39:09;;;;;;;28.47;11.78;;;;;;;28.93;41.51;99444.00;1779043;79;21268;-78
2021/08/26 12:42:22;;;;;;;27.20;12.28;;;;;;;29.03;41.43;99449.44;1800496;79;21270;-78
2021/08/26 12:45:28;;;;;;;24.55;11.03;;;;;;;29.11;41.10;99429.52;1791729;79;21125;-78
2021/08/26 12:48:38;;;;;;;23.20;9.88;;;;;;;29.16;41.26;99427.97;1768888;79;21198;-78
2021/08/26 12:52:01;;;;;;;16.70;8.78;;;;;;;29.16;40.75;99423.17;1791177;79;21175;-78
2021/08/26 12:55:07;;;;;;;18.32;9.08;;;;;;;29.07;41.35;99415.81;1780743;79;21779;-78
2021/08/26 12:58:21;;;;;;;23.22;11.35;;;;;;;29.05;41.79;99406.87;1786982;79;21280;-77
2021/08/26 13:01:31;;;;;;;25.05;13.60;;;;;;;29.05;41.97;99406.30;1766183;81;21227;-78
2021/08/26 13:04:39;;;;;;;18.55;10.38;;;;;;;29.00;41.70;99396.58;1772510;80;21325;-77
2021/08/26 13:07:43;;;;;;;21.20;10.98;;;;;;;28.96;42.10;99391.33;1768495;81;21333;-77
2021/08/26 13:10:51;;;;;;;32.45;14.58;;;;;;;28.84;42.26;99384.83;1765704;80;21249;-77
2021/08/26 13:14:01;;;;;;;23.32;12.07;;;;;;;28.70;42.66;99380.70;1778936;79;21171;-77
2021/08/26 13:17:11;;;;;;;22.50;11.43;;;;;;;28.70;42.66;99380.70;1786699;79;21233;-77
2021/08/26 13:20:14;;;;;;;32.80;12.20;;;;;;;28.69;43.21;99384.63;1785339;80;21316;-77
2021/08/26 13:23:22;;;;;;;23.80;12.70;;;;;;;28.70;42.98;99376.47;1789420;79;21228;-77
2021/08/26 13:26:28;;;;;;;21.42;9.88;;;;;;;28.75;43.39;99365.67;1770002;80;21279;-77
2021/08/26 13:29:33;;;;;;;16.05;9.70;;;;;;;28.78;43.28;99365.84;1779495;80;21259;-77
2021/08/26 13:32:39;;;;;;;17.55;9.33;;;;;;;28.77;43.98;99345.06;1759417;80;21300;-76
2021/08/26 13:35:44;;;;;;;23.07;10.88;;;;;;;28.77;43.98;99345.06;1758499;81;21293;-77
2021/08/26 13:38:49;;;;;;;23.10;10.55;;;;;;;28.77;43.76;99350.11;1787073;79;21843;-77
2021/08/26 13:41:55;;;;;;;15.55;9.48;;;;;;;28.73;43.80;99344.87;1795638;79;21827;-77
2021/08/26 13:45:02;;;;;;;24.80;12.05;;;;;;;28.65;44.15;99347.61;1796146;79;21328;-76
2021/08/26 13:48:08;;;;;;;17.60;10.95;;;;;;;28.65;44.15;99347.61;1768408;79;21220;-77
2021/08/26 13:51:13;;;;;;;19.17;10.13;;;;;;;28.53;44.43;99334.13;1784601;79;21894;-77
2021/08/26 13:54:24;;;;;;;16.50;9.90;;;;;;;28.53;44.43;99334.13;1786391;79;21263;-77
2021/08/26 13:57:29;;;;;;;18.95;8.80;;;;;;;28.53;45.23;99327.10;1800743;79;21264;-77
2021/08/26 14:00:35;;;;;;;15.98;7.90;;;;;;;28.44;44.93;99321.98;1791629;79;21563;-77
2021/08/26 14:03:40;;;;;;;10.35;8.43;;;;;;;28.44;44.93;99321.98;1793709;79;21331;-77
2021/08/26 14:06:46;;;;;;;13.80;7.97;;;;;;;28.38;44.82;99325.50;1800583;79;21224;-76
2021/08/26 14:09:53;;;;;;;16.55;8.08;;;;;;;28.24;45.15;99336.76;1798894;79;21574;-77
2021/08/26 14:13:03;;;;;;;20.00;9.18;;;;;;;28.24;45.15;99336.76;1798600;79;21193;-76
2021/08/26 14:16:10;;;;;;;18.30;9.28;;;;;;;28.13;45.74;99333.91;1786872;79;21345;-77
2021/08/26 14:19:15;;;;;;;22.25;8.98;;;;;;;28.06;45.98;99344.77;1761472;81;21202;-77
2021/08/26 14:22:21;;;;;;;22.73;10.82;;;;;;;27.94;46.41;99352.31;1762682;81;22536;-78
2021/08/26 14:25:27;;;;;;;24.18;10.23;;;;;;;27.94;46.41;99352.31;1761713;81;21633;-78
2021/08/26 14:28:33;;;;;;;21.45;10.13;;;;;;;27.87;47.03;99356.72;1762130;81;21179;-78
2021/08/26 14:31:39;;;;;;;15.85;9.38;;;;;;;27.78;47.39;99362.23;1759659;80;21881;-78
2021/08/26 14:34:45;;;;;;;13.85;9.43;;;;;;;27.69;47.63;99357.88;1760703;81;21298;-78
2021/08/26 14:37:50;;;;;;;20.97;9.00;;;;;;;27.60;47.83;99353.31;1760840;81;21683;-75
2021/08/26 14:40:56;;;;;;;17.87;10.18;;;;;;;27.50;48.22;99349.56;1762574;81;21856;-75
2021/08/26 14:44:03;;;;;;;16.05;10.28;;;;;;;27.42;48.61;99360.69;1763913;81;21786;-76
2021/08/26 14:47:10;;;;;;;15.20;9.30;;;;;;;27.34;49.04;99371.25;1758094;81;21298;-76
2021/08/26 14:50:16;;;;;;;14.65;9.08;;;;;;;27.28;49.45;99374.70;1727782;83;21337;-75
2021/08/26 14:53:22;;;;;;;24.82;11.33;;;;;;;27.20;49.90;99373.45;1785527;79;21871;-76
2021/08/26 14:56:28;;;;;;;22.82;10.98;;;;;;;27.14;50.36;99376.08;1757038;81;21353;-76
2021/08/26 14:59:34;;;;;;;22.00;11.70;;;;;;;27.07;50.97;99374.22;1760076;81;21245;-76
2021/08/26 15:02:41;;;;;;;22.40;11.63;;;;;;;26.97;51.47;99372.44;1763182;81;21280;-75
2021/08/26 15:05:48;;;;;;;21.02;11.78;;;;;;;26.89;51.96;99373.12;1762974;81;21643;-75
2021/08/26 15:08:54;;;;;;;22.10;11.50;;;;;;;26.83;52.31;99388.97;1757860;81;21333;-76
2021/08/26 15:12:00;;;;;;;23.12;12.28;;;;;;;26.76;52.78;99399.16;1757398;81;21667;-75
2021/08/26 15:15:06;;;;;;;18.25;11.70;;;;;;;26.70;53.08;99406.83;1751949;81;21346;-75
2021/08/26 15:18:11;;;;;;;25.15;11.97;;;;;;;26.65;53.53;99407.48;1761076;81;21324;-75
2021/08/26 15:21:17;;;;;;;40.83;13.35;;;;;;;26.59;53.91;99399.72;1761248;81;21852;-75
2021/08/26 15:24:22;;;;;;;28.10;13.65;;;;;;;26.51;54.22;99391.98;1759095;81;21234;-75
2021/08/26 15:27:27;;;;;;;27.80;13.55;;;;;;;26.44;54.50;99390.12;1758464;81;21231;-75
2021/08/26 15:30:33;;;;;;;35.58;14.50;;;;;;;26.37;54.77;99381.23;1743254;81;21569;-75
2021/08/26 15:33:39;;;;;;;29.15;14.33;;;;;;;26.29;55.20;99374.91;1762440;81;21815;-75
2021/08/26 15:36:44;;;;;;;26.50;13.65;;;;;;;26.20;55.42;99385.95;1762030;81;21371;-75
2021/08/26 15:39:50;;;;;;;30.30;13.38;;;;;;;26.13;55.72;99388.31;1761614;81;21169;-76
2021/08/26 15:42:55;;;;;;;29.30;12.13;;;;;;;26.06;55.97;99388.66;1762675;81;21307;-75
2021/08/26 15:46:00;;;;;;;21.00;10.68;;;;;;;25.99;56.02;99386.81;1762808;81;21691;-75